Time;durP1;ratioP1;P1;durP2;ratioP2;P2;SDS_P1;SDS_P2;PMS_P1;PMS_P2;Temp;Humidity;BMP_temperature;BMP_pressure;BME280_temperature;BME280_humidity;BME280_pressure;Samples;Min_cycle;Max_cycle;Signal;HPM_P1;HPM_P2
2023/12/29 00:00:21;;;;;;;5.28;2.63;;;;;;;;;;2027395;29;20064;-52
2023/12/29 00:01:21;;;;;;;6.68;3.15;;;;;;;;;;2027456;29;20128;-53
2023/12/29 00:02:22;;;;;;;4.93;2.92;;;;;;;;;;2026950;29;20056;-53
2023/12/29 00:03:23;;;;;;;4.63;2.65;;;;;;;;;;2027988;29;20041;-52
2023/12/29 00:04:24;;;;;;;5.70;3.10;;;;;;;;;;2027699;29;20397;-52
2023/12/29 00:05:25;;;;;;;5.45;2.95;;;;;;;;;;2027686;29;20057;-52
2023/12/29 00:06:25;;;;;;;5.90;3.13;;;;;;;;;;2026990;29;20466;-52
2023/12/29 00:07:26;;;;;;;5.57;2.95;;;;;;;;;;2027258;29;20048;-51
2023/12/29 00:08:27;;;;;;;11.95;2.45;;;;;;;;;;2027958;29;20029;-52
2023/12/29 00:09:27;;;;;;;4.57;2.75;;;;;;;;;;2027575;29;20032;-52
2023/12/29 00:10:28;;;;;;;5.13;2.85;;;;;;;;;;2027068;29;20055;-52
2023/12/29 00:11:29;;;;;;;4.50;2.88;;;;;;;;;;2026849;29;20071;-53
2023/12/29 00:12:30;;;;;;;4.70;2.83;;;;;;;;;;2027443;29;20056;-52
2023/12/29 00:13:30;;;;;;;5.80;2.75;;;;;;;;;;2027661;29;20384;-52
2023/12/29 00:14:31;;;;;;;5.60;2.83;;;;;;;;;;2027420;29;20036;-53
2023/12/29 00:15:32;;;;;;;5.97;2.90;;;;;;;;;;2027932;29;20043;-53
2023/12/29 00:16:32;;;;;;;5.60;3.10;;;;;;;;;;2027498;29;20041;-53
2023/12/29 00:17:37;;;;;;;4.55;2.42;;;;;;;;;;2027070;29;20048;-52
2023/12/29 00:18:38;;;;;;;6.03;2.95;;;;;;;;;;2027079;29;20040;-52
2023/12/29 00:19:38;;;;;;;4.45;2.78;;;;;;;;;;2027411;29;20041;-52
2023/12/29 00:20:39;;;;;;;5.03;2.95;;;;;;;;;;2018509;29;20516;-53
2023/12/29 00:21:40;;;;;;;3.70;2.50;;;;;;;;;;2019036;29;20049;-53
2023/12/29 00:22:40;;;;;;;5.20;2.78;;;;;;;;;;2028022;29;20036;-53
2023/12/29 00:23:41;;;;;;;4.45;2.80;;;;;;;;;;2027618;29;20037;-52
2023/12/29 00:24:42;;;;;;;5.32;2.78;;;;;;;;;;2027373;29;20048;-53
2023/12/29 00:25:43;;;;;;;4.60;2.90;;;;;;;;;;2027239;29;20401;-53
2023/12/29 00:26:43;;;;;;;4.88;2.80;;;;;;;;;;2027796;29;20032;-53
2023/12/29 00:27:44;;;;;;;4.70;2.40;;;;;;;;;;2027542;29;20044;-53
2023/12/29 00:28:45;;;;;;;5.15;3.45;;;;;;;;;;2027590;29;20191;-54
2023/12/29 00:29:46;;;;;;;4.95;3.03;;;;;;;;;;2027371;29;20044;-53
2023/12/29 00:30:47;;;;;;;5.40;2.95;;;;;;;;;;2026678;29;20037;-54
2023/12/29 00:31:48;;;;;;;6.32;3.20;;;;;;;;;;2026640;29;20032;-53
2023/12/29 00:32:48;;;;;;;4.85;2.95;;;;;;;;;;2026714;29;20049;-54
2023/12/29 00:33:51;;;;;;;6.95;3.58;;;;;;;;;;2027082;29;20442;-53
2023/12/29 00:34:53;;;;;;;4.82;2.97;;;;;;;;;;2026864;29;20044;-53
2023/12/29 00:35:54;;;;;;;4.68;2.70;;;;;;;;;;2026778;29;20033;-54
2023/12/29 00:36:55;;;;;;;6.05;3.10;;;;;;;;;;2026267;29;20393;-54
2023/12/29 00:37:56;;;;;;;5.32;2.70;;;;;;;;;;2018538;29;20056;-53
2023/12/29 00:38:58;;;;;;;5.47;3.03;;;;;;;;;;2018787;29;20029;-53
2023/12/29 00:39:59;;;;;;;5.88;3.28;;;;;;;;;;2018226;29;20045;-54
2023/12/29 00:41:00;;;;;;;4.85;3.28;;;;;;;;;;2018422;29;20032;-54
2023/12/29 00:42:01;;;;;;;4.75;3.05;;;;;;;;;;2026205;29;20032;-53
2023/12/29 00:43:01;;;;;;;5.40;2.85;;;;;;;;;;2026382;29;20048;-54
2023/12/29 00:44:02;;;;;;;5.78;3.13;;;;;;;;;;2026890;29;20060;-56
2023/12/29 00:45:03;;;;;;;6.60;3.00;;;;;;;;;;2027265;29;20040;-53
2023/12/29 00:46:04;;;;;;;6.03;3.10;;;;;;;;;;2027097;29;20397;-54
2023/12/29 00:47:05;;;;;;;5.50;2.70;;;;;;;;;;2026518;29;20041;-53
2023/12/29 00:48:06;;;;;;;5.53;3.05;;;;;;;;;;2018786;29;20135;-52
2023/12/29 00:49:07;;;;;;;4.50;2.78;;;;;;;;;;2018727;29;20050;-53
2023/12/29 00:50:07;;;;;;;5.78;2.78;;;;;;;;;;2026922;29;20048;-53
2023/12/29 00:51:08;;;;;;;5.20;3.10;;;;;;;;;;2019053;29;20045;-53
2023/12/29 00:52:09;;;;;;;4.65;2.25;;;;;;;;;;2011159;29;20045;-53
2023/12/29 00:53:09;;;;;;;4.60;2.70;;;;;;;;;;2019146;29;20045;-53
2023/12/29 00:54:11;;;;;;;6.47;2.90;;;;;;;;;;2010588;29;20457;-53
2023/12/29 00:55:11;;;;;;;5.03;3.10;;;;;;;;;;2018830;29;20076;-54
2023/12/29 00:56:12;;;;;;;5.70;3.10;;;;;;;;;;2027092;29;20512;-54
2023/12/29 00:57:13;;;;;;;5.50;3.45;;;;;;;;;;2027413;29;20041;-54
2023/12/29 00:58:14;;;;;;;4.28;2.92;;;;;;;;;;2026850;29;20074;-52
2023/12/29 00:59:15;;;;;;;4.25;2.72;;;;;;;;;;2026011;29;20052;-52
2023/12/29 01:00:16;;;;;;;4.40;2.97;;;;;;;;;;2018969;29;20041;-55
2023/12/29 01:01:16;;;;;;;5.68;2.97;;;;;;;;;;2018833;29;20425;-54
2023/12/29 01:02:17;;;;;;;5.97;3.30;;;;;;;;;;2027240;29;20033;-52
2023/12/29 01:03:18;;;;;;;5.32;2.97;;;;;;;;;;2026743;29;20063;-54
2023/12/29 01:04:18;;;;;;;5.38;3.13;;;;;;;;;;2027155;29;20036;-53
2023/12/29 01:05:19;;;;;;;4.57;2.35;;;;;;;;;;2027219;29;20365;-54
2023/12/29 01:06:20;;;;;;;4.95;3.08;;;;;;;;;;2017353;29;20155;-53
2023/12/29 01:07:21;;;;;;;4.45;2.90;;;;;;;;;;2018422;29;20124;-53
2023/12/29 01:08:21;;;;;;;5.22;3.10;;;;;;;;;;2025423;29;20052;-54
2023/12/29 01:09:22;;;;;;;5.53;3.03;;;;;;;;;;2026420;29;20044;-53
2023/12/29 01:10:23;;;;;;;7.28;3.08;;;;;;;;;;2026461;29;20060;-53
2023/12/29 01:11:24;;;;;;;4.97;3.03;;;;;;;;;;2027074;29;20036;-53
2023/12/29 01:12:25;;;;;;;5.90;3.35;;;;;;;;;;2018419;29;20041;-54
2023/12/29 01:13:26;;;;;;;5.22;3.45;;;;;;;;;;2018958;29;20037;-53
2023/12/29 01:14:26;;;;;;;5.18;3.10;;;;;;;;;;2018811;29;20402;-53
2023/12/29 01:15:28;;;;;;;7.03;3.50;;;;;;;;;;2010992;29;20044;-54
2023/12/29 01:16:29;;;;;;;6.28;3.20;;;;;;;;;;2018711;29;20025;-53
2023/12/29 01:17:29;;;;;;;4.35;2.75;;;;;;;;;;2018595;29;20371;-52
2023/12/29 01:18:31;;;;;;;5.78;3.30;;;;;;;;;;2018699;29;20470;-53
2023/12/29 01:19:31;;;;;;;5.80;2.97;;;;;;;;;;2025708;29;20046;-54
2023/12/29 01:20:32;;;;;;;6.25;3.17;;;;;;;;;;2026052;29;20418;-53
2023/12/29 01:21:34;;;;;;;6.43;3.00;;;;;;;;;;2026479;29;20500;-53
2023/12/29 01:22:34;;;;;;;5.82;3.00;;;;;;;;;;2026935;29;20040;-53
2023/12/29 01:23:35;;;;;;;5.05;3.10;;;;;;;;;;2027218;29;20041;-53
2023/12/29 01:24:36;;;;;;;6.03;3.42;;;;;;;;;;2018677;29;20426;-54
2023/12/29 01:25:37;;;;;;;6.15;3.22;;;;;;;;;;2018800;29;20036;-54
2023/12/29 01:26:38;;;;;;;5.43;3.10;;;;;;;;;;2026515;29;20056;-53
2023/12/29 01:27:38;;;;;;;7.53;3.42;;;;;;;;;;2026404;29;20032;-54
2023/12/29 01:28:40;;;;;;;4.85;2.85;;;;;;;;;;2027031;29;20458;-53
2023/12/29 01:29:41;;;;;;;5.30;3.60;;;;;;;;;;2026927;29;20036;-54
2023/12/29 01:30:41;;;;;;;5.63;3.15;;;;;;;;;;2027123;29;20040;-53
2023/12/29 01:31:42;;;;;;;6.53;3.20;;;;;;;;;;2027083;29;20053;-53
2023/12/29 01:32:43;;;;;;;5.82;3.40;;;;;;;;;;2027100;29;20041;-52
2023/12/29 01:33:43;;;;;;;5.35;3.53;;;;;;;;;;2026840;29;20041;-53
2023/12/29 01:34:44;;;;;;;5.32;3.10;;;;;;;;;;2026938;29;20056;-54
2023/12/29 01:35:45;;;;;;;6.95;3.00;;;;;;;;;;2026838;29;20033;-53
2023/12/29 01:36:46;;;;;;;17.95;4.03;;;;;;;;;;2026842;29;20470;-53
2023/12/29 01:37:46;;;;;;;5.68;3.40;;;;;;;;;;2025704;29;20052;-53
2023/12/29 01:38:47;;;;;;;4.88;2.97;;;;;;;;;;2025987;29;20048;-54
2023/12/29 01:39:48;;;;;;;5.93;3.50;;;;;;;;;;2026216;29;20060;-53
2023/12/29 01:40:48;;;;;;;5.15;3.20;;;;;;;;;;2018420;29;20061;-54
2023/12/29 01:41:49;;;;;;;5.70;3.30;;;;;;;;;;2018594;29;20029;-53
2023/12/29 01:42:50;;;;;;;5.68;2.90;;;;;;;;;;2018808;29;20541;-52
2023/12/29 01:43:54;;;;;;;6.63;3.22;;;;;;;;;;2018454;29;20498;-54
2023/12/29 01:44:55;;;;;;;4.45;3.15;;;;;;;;;;2018622;29;20497;-52
2023/12/29 01:45:55;;;;;;;4.72;2.83;;;;;;;;;;2025884;29;20045;-53
2023/12/29 01:46:57;;;;;;;6.72;3.40;;;;;;;;;;2010698;29;20494;-53
2023/12/29 01:47:58;;;;;;;6.53;3.35;;;;;;;;;;2010923;29;20049;-52
2023/12/29 01:48:59;;;;;;;5.03;2.92;;;;;;;;;;2018479;29;20037;-54
2023/12/29 01:50:00;;;;;;;6.55;3.38;;;;;;;;;;2026074;29;20079;-53
2023/12/29 01:51:00;;;;;;;5.20;3.30;;;;;;;;;;2018944;29;20168;-53
2023/12/29 01:52:01;;;;;;;4.85;3.20;;;;;;;;;;2018602;29;20037;-53
2023/12/29 01:53:02;;;;;;;8.25;3.92;;;;;;;;;;2010483;29;20045;-54
2023/12/29 01:54:03;;;;;;;6.45;3.40;;;;;;;;;;2010719;29;20506;-52
2023/12/29 01:55:04;;;;;;;5.93;3.28;;;;;;;;;;2018424;29;20056;-52
2023/12/29 01:56:05;;;;;;;5.18;3.30;;;;;;;;;;2025771;29;20059;-53
2023/12/29 01:57:05;;;;;;;5.47;3.58;;;;;;;;;;2026026;29;20078;-54
2023/12/29 01:58:06;;;;;;;5.70;3.17;;;;;;;;;;2026156;29;20037;-63
2023/12/29 01:59:07;;;;;;;5.65;2.83;;;;;;;;;;2019588;29;20041;-53
2023/12/29 02:00:08;;;;;;;4.78;3.15;;;;;;;;;;2011635;29;20046;-52
2023/12/29 02:01:13;;;;;;;7.35;3.22;;;;;;;;;;2020073;29;20044;-54
2023/12/29 02:02:15;;;;;;;5.32;2.72;;;;;;;;;;2019400;29;20056;-53
2023/12/29 02:03:15;;;;;;;6.32;2.80;;;;;;;;;;2011839;29;20033;-53
2023/12/29 02:04:17;;;;;;;4.80;2.97;;;;;;;;;;2018729;29;20402;-54
2023/12/29 02:05:18;;;;;;;5.45;3.17;;;;;;;;;;2018444;29;20049;-55
2023/12/29 02:06:18;;;;;;;4.45;2.75;;;;;;;;;;2018066;29;20128;-52
2023/12/29 02:07:19;;;;;;;6.07;3.40;;;;;;;;;;2010516;29;20097;-54
2023/12/29 02:08:21;;;;;;;6.20;2.92;;;;;;;;;;2010233;29;20489;-52
2023/12/29 02:09:22;;;;;;;5.90;3.05;;;;;;;;;;2018261;29;20037;-54
2023/12/29 02:10:23;;;;;;;6.03;2.83;;;;;;;;;;2017913;29;20076;-54
2023/12/29 02:11:23;;;;;;;5.95;2.70;;;;;;;;;;2018354;29;20048;-54
2023/12/29 02:12:24;;;;;;;6.60;2.47;;;;;;;;;;2018361;29;20032;-53
2023/12/29 02:13:25;;;;;;;5.35;2.67;;;;;;;;;;2017685;29;20589;-53
2023/12/29 02:14:25;;;;;;;3.95;2.40;;;;;;;;;;2018251;29;20382;-53
2023/12/29 02:15:27;;;;;;;6.15;3.33;;;;;;;;;;2018414;29;20070;-53
2023/12/29 02:16:35;;;;;;;7.40;3.03;;;;;;;;;;2018432;29;20038;-53
2023/12/29 02:17:40;;;;;;;4.68;2.85;;;;;;;;;;2017789;29;20049;-53
2023/12/29 02:18:40;;;;;;;6.85;3.00;;;;;;;;;;2018660;29;20509;-53
2023/12/29 02:19:43;;;;;;;4.65;2.95;;;;;;;;;;2026046;29;20031;-53
2023/12/29 02:20:44;;;;;;;5.13;2.80;;;;;;;;;;2026343;29;20040;-53
2023/12/29 02:21:45;;;;;;;5.07;3.17;;;;;;;;;;2025102;29;20437;-52
2023/12/29 02:22:46;;;;;;;2.97;1.70;;;;;;;;;;2026103;29;20051;-53
2023/12/29 02:23:47;;;;;;;10.95;3.15;;;;;;;;;;2017901;29;20056;-52
2023/12/29 02:24:48;;;;;;;5.53;2.92;;;;;;;;;;2017992;29;20475;-52
2023/12/29 02:25:49;;;;;;;5.15;2.90;;;;;;;;;;2017865;29;20072;-53
2023/12/29 02:26:50;;;;;;;5.10;2.95;;;;;;;;;;2010098;29;20061;-53
2023/12/29 02:28:10;;;;;;;4.72;2.60;;;;;;;;;;2010581;29;20102;-53
2023/12/29 02:29:10;;;;;;;4.38;2.40;;;;;;;;;;2020443;29;20056;-54
2023/12/29 02:30:29;;;;;;;5.68;3.10;;;;;;;;;;2017839;29;20077;-53
2023/12/29 02:31:29;;;;;;;4.85;2.47;;;;;;;;;;2020978;29;20048;-53
2023/12/29 02:32:30;;;;;;;6.13;3.28;;;;;;;;;;2017329;29;20044;-52
2023/12/29 02:33:31;;;;;;;3.90;2.33;;;;;;;;;;2010415;29;20053;-53
2023/12/29 02:34:32;;;;;;;5.95;3.40;;;;;;;;;;2017852;29;20109;-53
2023/12/29 02:35:34;;;;;;;6.50;3.13;;;;;;;;;;2025473;29;20044;-53
2023/12/29 02:36:42;;;;;;;5.93;2.97;;;;;;;;;;2025867;29;20053;-53
2023/12/29 02:37:43;;;;;;;5.50;2.92;;;;;;;;;;2018410;29;20068;-53
2023/12/29 02:38:44;;;;;;;6.45;3.25;;;;;;;;;;2018142;29;20045;-54
2023/12/29 02:39:45;;;;;;;7.18;2.90;;;;;;;;;;2026040;29;20429;-53
2023/12/29 02:40:46;;;;;;;4.35;2.78;;;;;;;;;;2025290;29;20420;-52
2023/12/29 02:41:46;;;;;;;4.53;2.63;;;;;;;;;;2017509;29;20513;-54
2023/12/29 02:42:47;;;;;;;5.43;2.90;;;;;;;;;;2017894;29;20041;-54
2023/12/29 02:43:48;;;;;;;5.10;2.70;;;;;;;;;;2026013;29;20492;-52
2023/12/29 02:44:49;;;;;;;5.45;2.72;;;;;;;;;;2026342;29;20065;-53
2023/12/29 02:45:49;;;;;;;4.60;2.75;;;;;;;;;;2026445;29;20036;-54
2023/12/29 02:46:51;;;;;;;4.25;2.50;;;;;;;;;;2025884;29;20056;-53
2023/12/29 02:47:52;;;;;;;5.50;2.50;;;;;;;;;;2026434;29;20393;-53
2023/12/29 02:48:53;;;;;;;4.78;2.50;;;;;;;;;;2017094;29;20064;-55
2023/12/29 02:49:54;;;;;;;5.70;2.83;;;;;;;;;;2010004;29;20061;-54
2023/12/29 02:50:55;;;;;;;5.45;2.90;;;;;;;;;;2017292;29;20421;-54
2023/12/29 02:51:56;;;;;;;7.20;2.80;;;;;;;;;;2026063;29;20051;-54
2023/12/29 02:52:56;;;;;;;4.43;2.97;;;;;;;;;;2017921;29;20041;-53
2023/12/29 02:53:57;;;;;;;6.95;2.85;;;;;;;;;;2017476;29;20058;-53
2023/12/29 02:54:58;;;;;;;4.55;2.85;;;;;;;;;;2026102;29;20067;-53
2023/12/29 02:55:59;;;;;;;3.70;2.45;;;;;;;;;;2018190;29;20045;-53
2023/12/29 02:56:59;;;;;;;4.00;2.53;;;;;;;;;;2017970;29;20040;-54
2023/12/29 02:58:00;;;;;;;4.47;2.70;;;;;;;;;;2026207;29;20036;-52
2023/12/29 02:59:01;;;;;;;4.15;2.40;;;;;;;;;;2026580;29;20457;-54
2023/12/29 03:00:03;;;;;;;4.05;2.50;;;;;;;;;;2025717;29;20055;-53
2023/12/29 03:01:04;;;;;;;4.30;2.40;;;;;;;;;;2026295;29;20036;-53
2023/12/29 03:02:05;;;;;;;4.93;3.40;;;;;;;;;;2025630;29;20048;-54
2023/12/29 03:03:05;;;;;;;4.97;2.47;;;;;;;;;;2025787;29;20062;-52
2023/12/29 03:04:06;;;;;;;3.75;2.13;;;;;;;;;;2025602;29;20057;-53
2023/12/29 03:05:08;;;;;;;4.20;2.72;;;;;;;;;;2025593;29;20504;-53
2023/12/29 03:06:09;;;;;;;4.15;2.38;;;;;;;;;;2018261;29;20044;-54
2023/12/29 03:07:10;;;;;;;3.35;1.80;;;;;;;;;;2017798;29;20057;-53
2023/12/29 03:08:10;;;;;;;5.82;2.55;;;;;;;;;;2025323;29;20053;-53
2023/12/29 03:09:11;;;;;;;3.47;2.30;;;;;;;;;;2017542;29;20422;-53
2023/12/29 03:10:12;;;;;;;3.28;2.25;;;;;;;;;;2018005;29;20057;-54
2023/12/29 03:11:13;;;;;;;4.45;2.55;;;;;;;;;;2025531;29;20041;-53
2023/12/29 03:12:13;;;;;;;4.88;2.90;;;;;;;;;;2017538;29;20059;-53
2023/12/29 03:13:14;;;;;;;3.97;2.45;;;;;;;;;;2017782;29;20045;-54
2023/12/29 03:14:15;;;;;;;5.70;3.00;;;;;;;;;;2017992;29;20437;-54
2023/12/29 03:15:16;;;;;;;5.22;3.00;;;;;;;;;;2017305;29;20055;-53
2023/12/29 03:16:16;;;;;;;8.57;2.70;;;;;;;;;;2025554;29;20051;-54
2023/12/29 03:17:17;;;;;;;4.03;2.10;;;;;;;;;;2016968;29;20176;-54
2023/12/29 03:18:18;;;;;;;6.53;2.97;;;;;;;;;;2017994;29;20037;-53
2023/12/29 03:19:19;;;;;;;4.70;2.67;;;;;;;;;;2026050;29;20393;-54
2023/12/29 03:20:19;;;;;;;5.97;2.78;;;;;;;;;;2024954;29;20645;-52
2023/12/29 03:21:20;;;;;;;5.40;3.08;;;;;;;;;;2024939;29;20459;-53
2023/12/29 03:22:21;;;;;;;6.72;2.75;;;;;;;;;;2026142;29;20039;-53
2023/12/29 03:23:22;;;;;;;7.90;3.28;;;;;;;;;;2026469;29;20124;-53
2023/12/29 03:24:22;;;;;;;6.40;2.55;;;;;;;;;;2026458;29;20033;-53
2023/12/29 03:25:23;;;;;;;3.60;2.55;;;;;;;;;;2025267;29;20086;-52
2023/12/29 03:26:24;;;;;;;4.15;2.33;;;;;;;;;;2024941;29;20041;-53
2023/12/29 03:27:25;;;;;;;5.78;2.65;;;;;;;;;;2024933;29;20474;-53
2023/12/29 03:28:26;;;;;;;4.85;2.75;;;;;;;;;;2025589;29;20056;-53
2023/12/29 03:29:26;;;;;;;5.95;2.50;;;;;;;;;;2024935;29;20052;-53
2023/12/29 03:30:28;;;;;;;5.10;2.88;;;;;;;;;;2026085;29;20044;-53
2023/12/29 03:31:28;;;;;;;4.55;2.65;;;;;;;;;;2025639;29;20481;-53
2023/12/29 03:32:29;;;;;;;7.30;2.50;;;;;;;;;;2025983;29;20040;-53
2023/12/29 03:33:30;;;;;;;3.83;2.03;;;;;;;;;;2026406;29;20029;-53
2023/12/29 03:34:30;;;;;;;5.30;3.03;;;;;;;;;;2026498;29;20044;-53
2023/12/29 03:35:31;;;;;;;4.78;2.40;;;;;;;;;;2025458;29;20045;-52
2023/12/29 03:36:32;;;;;;;4.90;2.78;;;;;;;;;;2026272;29;20386;-53
2023/12/29 03:37:33;;;;;;;4.78;2.55;;;;;;;;;;2025991;29;20135;-53
2023/12/29 03:38:33;;;;;;;6.93;3.40;;;;;;;;;;2026172;29;20508;-53
2023/12/29 03:39:35;;;;;;;4.43;2.28;;;;;;;;;;2025439;29;20048;-54
2023/12/29 03:40:36;;;;;;;4.78;2.50;;;;;;;;;;2017723;29;20067;-53
2023/12/29 03:41:37;;;;;;;4.78;2.25;;;;;;;;;;2017834;29;20470;-53
2023/12/29 03:42:38;;;;;;;3.75;2.33;;;;;;;;;;2025223;29;20454;-54
2023/12/29 03:43:38;;;;;;;4.38;2.30;;;;;;;;;;2026422;29;20377;-53
2023/12/29 03:44:39;;;;;;;5.75;2.70;;;;;;;;;;2026044;29;20031;-53
2023/12/29 03:45:40;;;;;;;4.20;2.22;;;;;;;;;;2025359;29;20040;-54
2023/12/29 03:46:42;;;;;;;4.38;2.53;;;;;;;;;;2025534;29;20040;-52
2023/12/29 03:47:43;;;;;;;4.15;2.83;;;;;;;;;;2017808;29;20052;-53
2023/12/29 03:48:44;;;;;;;5.53;3.00;;;;;;;;;;2017706;29;20057;-54
2023/12/29 03:49:45;;;;;;;4.95;2.50;;;;;;;;;;2025325;29;20041;-53
2023/12/29 03:50:45;;;;;;;5.68;2.90;;;;;;;;;;2025969;29;20044;-53
2023/12/29 03:51:46;;;;;;;5.32;2.45;;;;;;;;;;2025637;29;20075;-53
2023/12/29 03:52:47;;;;;;;4.20;1.80;;;;;;;;;;2025460;29;20052;-54
2023/12/29 03:53:47;;;;;;;4.68;2.50;;;;;;;;;;2026181;29;20043;-54
2023/12/29 03:54:48;;;;;;;5.65;3.13;;;;;;;;;;2026398;29;20028;-53
2023/12/29 03:55:49;;;;;;;4.15;2.55;;;;;;;;;;2025574;29;20490;-53
2023/12/29 03:56:50;;;;;;;6.05;2.90;;;;;;;;;;2026417;29;20040;-53
2023/12/29 03:57:51;;;;;;;4.35;2.45;;;;;;;;;;2017929;29;20049;-52
2023/12/29 03:58:51;;;;;;;3.67;2.22;;;;;;;;;;2017356;29;20415;-53
2023/12/29 03:59:52;;;;;;;4.00;2.55;;;;;;;;;;2026061;29;20473;-55
2023/12/29 04:00:53;;;;;;;4.47;2.05;;;;;;;;;;2017851;29;20049;-54
2023/12/29 04:01:54;;;;;;;4.88;2.67;;;;;;;;;;2009946;29;20154;-54
2023/12/29 04:02:55;;;;;;;4.25;2.45;;;;;;;;;;2017368;29;20049;-53
2023/12/29 04:03:56;;;;;;;3.35;2.25;;;;;;;;;;2026192;29;20371;-53
2023/12/29 04:04:56;;;;;;;7.60;2.08;;;;;;;;;;2026053;29;20040;-53
2023/12/29 04:05:57;;;;;;;6.28;2.70;;;;;;;;;;2025529;29;20053;-53
2023/12/29 04:06:58;;;;;;;4.40;2.00;;;;;;;;;;2026034;29;20057;-54
2023/12/29 04:07:58;;;;;;;3.95;2.20;;;;;;;;;;2026064;29;20183;-53
2023/12/29 04:08:59;;;;;;;3.83;2.53;;;;;;;;;;2025556;29;20049;-53
2023/12/29 04:10:00;;;;;;;3.17;1.83;;;;;;;;;;2025994;29;20036;-53
2023/12/29 04:11:01;;;;;;;4.88;2.33;;;;;;;;;;2025367;29;20401;-54
2023/12/29 04:12:01;;;;;;;4.93;2.83;;;;;;;;;;2026186;29;20044;-53
2023/12/29 04:13:02;;;;;;;3.72;2.25;;;;;;;;;;2017560;29;20462;-54
2023/12/29 04:14:03;;;;;;;3.83;2.28;;;;;;;;;;2009429;29;20045;-54
2023/12/29 04:15:04;;;;;;;5.25;2.28;;;;;;;;;;2017633;29;20044;-54
2023/12/29 04:16:05;;;;;;;5.63;2.03;;;;;;;;;;2009575;29;20057;-55
2023/12/29 04:17:13;;;;;;;3.35;2.35;;;;;;;;;;2002551;29;20050;-53
2023/12/29 04:18:15;;;;;;;5.50;2.45;;;;;;;;;;2019002;29;20037;-53
2023/12/29 04:19:16;;;;;;;7.70;2.72;;;;;;;;;;2025926;29;20041;-54
2023/12/29 04:20:17;;;;;;;5.20;2.78;;;;;;;;;;2025492;29;20051;-53
2023/12/29 04:21:17;;;;;;;5.30;2.60;;;;;;;;;;2017965;29;20497;-53
2023/12/29 04:22:18;;;;;;;5.75;2.90;;;;;;;;;;2017319;29;20064;-53
2023/12/29 04:23:19;;;;;;;6.97;2.50;;;;;;;;;;2026059;29;20393;-55
2023/12/29 04:24:19;;;;;;;4.30;2.50;;;;;;;;;;2025352;29;20036;-53
2023/12/29 04:25:20;;;;;;;4.78;2.63;;;;;;;;;;2025082;29;20060;-53
2023/12/29 04:26:21;;;;;;;3.47;2.05;;;;;;;;;;2025381;29;20049;-53
2023/12/29 04:27:22;;;;;;;3.67;2.08;;;;;;;;;;2025459;29;20043;-53
2023/12/29 04:28:22;;;;;;;5.32;2.75;;;;;;;;;;2025265;29;20099;-52
2023/12/29 04:29:23;;;;;;;3.75;2.17;;;;;;;;;;2026023;29;20389;-53
2023/12/29 04:30:24;;;;;;;3.85;2.30;;;;;;;;;;2026045;29;20033;-53
2023/12/29 04:31:24;;;;;;;4.90;2.33;;;;;;;;;;2025315;29;20157;-54
2023/12/29 04:32:25;;;;;;;5.63;2.50;;;;;;;;;;2025326;29;20052;-54
2023/12/29 04:33:26;;;;;;;4.90;2.30;;;;;;;;;;2026238;29;20036;-53
2023/12/29 04:34:26;;;;;;;3.70;2.28;;;;;;;;;;2017587;29;20048;-53
2023/12/29 04:35:28;;;;;;;6.32;2.80;;;;;;;;;;2009568;29;20049;-53
2023/12/29 04:36:29;;;;;;;4.40;2.45;;;;;;;;;;2009857;29;20033;-53
2023/12/29 04:37:30;;;;;;;5.32;2.47;;;;;;;;;;2017549;29;20466;-53
2023/12/29 04:38:30;;;;;;;3.70;2.20;;;;;;;;;;2025529;29;20052;-53
2023/12/29 04:39:31;;;;;;;3.63;1.90;;;;;;;;;;2025431;29;20052;-54
2023/12/29 04:40:32;;;;;;;5.25;2.50;;;;;;;;;;2025556;29;20045;-54
2023/12/29 04:41:33;;;;;;;3.55;2.17;;;;;;;;;;2026019;29;20065;-56
2023/12/29 04:42:33;;;;;;;3.17;1.90;;;;;;;;;;2026270;29;20040;-53
2023/12/29 04:43:34;;;;;;;5.53;2.33;;;;;;;;;;2027267;29;20040;-52
2023/12/29 04:44:35;;;;;;;5.03;2.67;;;;;;;;;;2026654;29;20068;-54
2023/12/29 04:45:35;;;;;;;2.65;1.70;;;;;;;;;;2027241;29;20477;-52
2023/12/29 04:46:36;;;;;;;3.80;1.80;;;;;;;;;;2027215;29;20041;-54
2023/12/29 04:47:37;;;;;;;5.30;2.22;;;;;;;;;;2026469;29;20056;-53
2023/12/29 04:48:38;;;;;;;3.78;1.92;;;;;;;;;;2027271;29;20045;-54
2023/12/29 04:49:38;;;;;;;4.35;2.33;;;;;;;;;;2026770;29;20051;-53
2023/12/29 04:50:39;;;;;;;4.30;2.45;;;;;;;;;;2026604;29;20049;-53
2023/12/29 04:51:40;;;;;;;5.72;2.40;;;;;;;;;;2027147;29;20036;-54
2023/12/29 04:52:41;;;;;;;3.13;1.73;;;;;;;;;;2027598;29;20055;-54
2023/12/29 04:53:41;;;;;;;4.07;2.00;;;;;;;;;;2027129;29;20390;-54
2023/12/29 04:54:42;;;;;;;5.47;2.10;;;;;;;;;;2027088;29;20028;-53
2023/12/29 04:55:43;;;;;;;4.47;2.10;;;;;;;;;;2026278;29;20052;-53
2023/12/29 04:56:43;;;;;;;4.57;2.55;;;;;;;;;;2026814;29;20032;-54
2023/12/29 04:57:44;;;;;;;3.92;2.17;;;;;;;;;;2026078;29;20056;-53
2023/12/29 04:58:45;;;;;;;4.10;2.25;;;;;;;;;;2026259;29;20503;-52
2023/12/29 04:59:45;;;;;;;5.15;2.50;;;;;;;;;;2026466;29;20052;-52
2023/12/29 05:00:46;;;;;;;5.10;2.20;;;;;;;;;;2026751;29;20052;-54
2023/12/29 05:01:47;;;;;;;4.22;2.42;;;;;;;;;;2026811;29;20049;-53
2023/12/29 05:02:48;;;;;;;4.95;2.40;;;;;;;;;;2026147;29;20493;-53
2023/12/29 05:03:48;;;;;;;4.55;2.10;;;;;;;;;;2027128;29;20378;-53
2023/12/29 05:04:49;;;;;;;4.03;2.45;;;;;;;;;;2027195;29;20478;-53
2023/12/29 05:05:50;;;;;;;5.78;2.75;;;;;;;;;;2027193;29;20029;-52
2023/12/29 05:06:51;;;;;;;4.25;2.20;;;;;;;;;;2026506;29;20060;-53
2023/12/29 05:07:51;;;;;;;5.45;2.92;;;;;;;;;;2026733;29;20083;-53
2023/12/29 05:08:52;;;;;;;3.83;2.08;;;;;;;;;;2027130;29;20051;-52
2023/12/29 05:09:53;;;;;;;5.00;2.70;;;;;;;;;;2026795;29;20052;-52
2023/12/29 05:10:55;;;;;;;5.25;1.98;;;;;;;;;;2026419;29;20401;-53
2023/12/29 05:11:56;;;;;;;4.50;2.38;;;;;;;;;;2027414;29;20036;-53
2023/12/29 05:12:56;;;;;;;4.95;2.30;;;;;;;;;;2027157;29;20041;-52
2023/12/29 05:13:57;;;;;;;4.47;2.55;;;;;;;;;;2027216;29;20063;-52
2023/12/29 05:14:58;;;;;;;3.45;1.63;;;;;;;;;;2027109;29;20048;-52
2023/12/29 05:15:58;;;;;;;4.97;2.45;;;;;;;;;;2026345;29;20052;-53
2023/12/29 05:16:59;;;;;;;5.47;2.10;;;;;;;;;;2026915;29;20044;-53
2023/12/29 05:18:01;;;;;;;6.10;2.45;;;;;;;;;;2026501;29;20504;-52
2023/12/29 05:19:01;;;;;;;3.53;1.58;;;;;;;;;;2026344;29;20052;-53
2023/12/29 05:20:02;;;;;;;3.60;1.83;;;;;;;;;;2026980;29;20485;-53
2023/12/29 05:21:03;;;;;;;5.70;2.60;;;;;;;;;;2027223;29;20075;-52
2023/12/29 05:22:04;;;;;;;4.40;1.70;;;;;;;;;;2018381;29;20049;-52
2023/12/29 05:23:04;;;;;;;3.13;1.60;;;;;;;;;;2018514;29;20509;-52
2023/12/29 05:24:05;;;;;;;3.00;1.98;;;;;;;;;;2026733;29;20041;-52
2023/12/29 05:25:06;;;;;;;3.55;1.70;;;;;;;;;;2026973;29;20044;-52
2023/12/29 05:26:07;;;;;;;4.03;1.90;;;;;;;;;;2027476;29;20043;-53
2023/12/29 05:27:08;;;;;;;4.68;2.50;;;;;;;;;;2028157;29;20036;-59
2023/12/29 05:28:09;;;;;;;4.07;2.28;;;;;;;;;;2027202;29;20084;-54
2023/12/29 05:29:09;;;;;;;3.38;1.33;;;;;;;;;;2027742;29;20063;-53
2023/12/29 05:30:10;;;;;;;4.15;1.85;;;;;;;;;;2027396;29;20052;-52
2023/12/29 05:31:11;;;;;;;3.97;2.10;;;;;;;;;;2027307;29;20059;-54
2023/12/29 05:32:12;;;;;;;3.20;2.00;;;;;;;;;;2026927;29;20040;-52
2023/12/29 05:33:13;;;;;;;4.13;2.20;;;;;;;;;;2027027;29;20040;-53
2023/12/29 05:34:13;;;;;;;3.22;1.90;;;;;;;;;;2026307;29;20401;-53
2023/12/29 05:35:14;;;;;;;5.05;1.73;;;;;;;;;;2026605;29;20063;-52
2023/12/29 05:36:15;;;;;;;4.10;2.25;;;;;;;;;;2026886;29;20049;-53
2023/12/29 05:37:15;;;;;;;4.22;2.22;;;;;;;;;;2026364;29;20044;-52
2023/12/29 05:38:16;;;;;;;3.75;1.88;;;;;;;;;;2026802;29;20080;-53
2023/12/29 05:39:17;;;;;;;4.13;1.92;;;;;;;;;;2026681;29;20032;-52
2023/12/29 05:40:18;;;;;;;4.45;2.10;;;;;;;;;;2026706;29;20112;-52
2023/12/29 05:41:18;;;;;;;3.20;1.50;;;;;;;;;;2026772;29;20064;-53
2023/12/29 05:42:19;;;;;;;5.10;2.50;;;;;;;;;;2025780;29;20035;-53
2023/12/29 05:43:20;;;;;;;3.97;2.08;;;;;;;;;;2026874;29;20088;-54
2023/12/29 05:44:21;;;;;;;3.75;2.03;;;;;;;;;;2026169;29;20092;-52
2023/12/29 05:45:21;;;;;;;4.85;2.33;;;;;;;;;;2026972;29;20036;-54
2023/12/29 05:46:22;;;;;;;4.68;2.58;;;;;;;;;;2027096;29;20064;-53
2023/12/29 05:47:23;;;;;;;5.40;2.47;;;;;;;;;;2026987;29;20033;-52
2023/12/29 05:48:24;;;;;;;4.55;2.03;;;;;;;;;;2026731;29;20132;-52
2023/12/29 05:49:25;;;;;;;3.60;2.28;;;;;;;;;;2026635;29;20037;-53
2023/12/29 05:50:26;;;;;;;5.22;1.88;;;;;;;;;;2026690;29;20047;-53
2023/12/29 05:51:27;;;;;;;4.70;2.17;;;;;;;;;;2027049;29;20495;-53
2023/12/29 05:52:28;;;;;;;5.80;2.75;;;;;;;;;;2026278;29;20037;-53
2023/12/29 05:53:29;;;;;;;4.03;2.40;;;;;;;;;;2025941;29;20052;-52
2023/12/29 05:54:30;;;;;;;4.07;1.90;;;;;;;;;;2027109;29;20052;-52
2023/12/29 05:55:30;;;;;;;5.07;2.65;;;;;;;;;;2026283;29;20390;-52
2023/12/29 05:56:31;;;;;;;4.10;2.22;;;;;;;;;;2026641;29;20032;-52
2023/12/29 05:57:32;;;;;;;2.58;1.48;;;;;;;;;;2026950;29;20036;-52
2023/12/29 05:58:32;;;;;;;4.07;2.10;;;;;;;;;;2026874;29;20124;-52
2023/12/29 05:59:33;;;;;;;4.93;1.58;;;;;;;;;;2027241;29;20040;-54
2023/12/29 06:00:34;;;;;;;3.20;1.80;;;;;;;;;;2026560;29;20059;-53
2023/12/29 06:01:35;;;;;;;4.68;2.58;;;;;;;;;;2026712;29;20029;-54
2023/12/29 06:02:35;;;;;;;4.32;2.00;;;;;;;;;;2025651;29;20099;-53
2023/12/29 06:03:36;;;;;;;4.30;2.15;;;;;;;;;;2027170;29;20055;-53
2023/12/29 06:04:37;;;;;;;2.47;1.75;;;;;;;;;;2027035;29;20418;-52
2023/12/29 06:05:38;;;;;;;4.43;2.17;;;;;;;;;;2026981;29;20389;-53